Time;durP1;ratioP1;P1;durP2;ratioP2;P2;SDS_P1;SDS_P2;PMS_P1;PMS_P2;Temp;Humidity;BMP_temperature;BMP_pressure;BME280_temperature;BME280_humidity;BME280_pressure;Samples;Min_cycle;Max_cycle;Signal;HPM_P1;HPM_P2
2023/07/19 00:01:34;;;;;;;4.00;3.70;;;16.50;99.90;;;;;;5000908;28;20914;-59
2023/07/19 00:04:04;;;;;;;3.40;3.10;;;16.50;99.90;;;;;;4997202;28;21107;-59
2023/07/19 00:06:32;;;;;;;4.27;3.93;;;16.50;99.90;;;;;;5001332;28;20910;-59
2023/07/19 00:09:00;;;;;;;4.13;3.70;;;16.50;99.90;;;;;;4997152;28;20559;-58
2023/07/19 00:11:28;;;;;;;4.63;3.63;;;16.50;99.90;;;;;;4999572;28;20495;-59
2023/07/19 00:13:56;;;;;;;3.73;3.43;;;16.50;99.90;;;;;;4999033;28;20579;-58
2023/07/19 00:16:24;;;;;;;3.63;3.43;;;16.50;99.90;;;;;;5000699;28;20900;-59
2023/07/19 00:18:52;;;;;;;4.30;3.70;;;16.50;99.90;;;;;;4993638;28;20468;-58
2023/07/19 00:21:34;;;;;;;3.83;3.50;;;16.50;99.90;;;;;;4992622;28;20507;-59
2023/07/19 00:24:02;;;;;;;3.60;3.30;;;16.50;99.90;;;;;;4998815;28;21136;-58
2023/07/19 00:26:30;;;;;;;4.10;3.70;;;16.50;99.90;;;;;;4999441;28;21198;-58
2023/07/19 00:28:58;;;;;;;3.87;3.57;;;16.40;99.90;;;;;;4995217;28;20493;-58
2023/07/19 00:31:26;;;;;;;4.20;3.90;;;16.40;99.90;;;;;;4997338;28;20480;-59
2023/07/19 00:33:54;;;;;;;4.10;3.47;;;16.40;99.90;;;;;;4993962;28;20845;-59
2023/07/19 00:36:22;;;;;;;4.07;3.77;;;16.40;99.90;;;;;;4993290;28;20483;-58
2023/07/19 00:38:52;;;;;;;3.53;3.33;;;16.40;99.90;;;;;;4995458;28;20497;-59
2023/07/19 00:41:20;;;;;;;4.43;3.70;;;16.40;99.90;;;;;;4988944;28;20571;-58
2023/07/19 00:43:48;;;;;;;3.53;3.33;;;16.40;99.90;;;;;;4996338;28;20496;-58
2023/07/19 00:46:17;;;;;;;4.70;3.70;;;16.40;99.90;;;;;;4996205;28;20554;-58
2023/07/19 00:48:45;;;;;;;3.77;3.47;;;16.40;99.90;;;;;;4991969;28;20818;-59
2023/07/19 00:51:13;;;;;;;3.40;3.20;;;16.40;99.90;;;;;;4996020;28;20492;-59
2023/07/19 00:53:41;;;;;;;4.30;3.70;;;16.40;99.90;;;;;;4994137;28;20583;-58
2023/07/19 00:56:11;;;;;;;4.00;3.70;;;16.40;99.90;;;;;;4994016;28;20934;-58
2023/07/19 00:58:41;;;;;;;3.73;3.43;;;16.40;99.90;;;;;;4992412;28;20965;-59
2023/07/19 01:01:09;;;;;;;3.60;3.30;;;16.40;99.90;;;;;;4997478;28;20580;-59
2023/07/19 01:03:37;;;;;;;4.20;3.80;;;16.40;99.90;;;;;;4998075;28;20471;-59
2023/07/19 01:06:06;;;;;;;4.23;3.80;;;16.40;99.90;;;;;;4992653;28;20564;-59
2023/07/19 01:08:34;;;;;;;4.97;3.63;;;16.40;99.90;;;;;;4997047;28;20746;-58
2023/07/19 01:11:02;;;;;;;4.37;3.97;;;16.40;99.90;;;;;;4999470;28;20469;-59
2023/07/19 01:13:31;;;;;;;4.23;3.93;;;16.40;99.90;;;;;;4993815;28;20497;-58
2023/07/19 01:15:59;;;;;;;5.50;4.33;;;16.40;99.90;;;;;;4996363;28;20505;-58
2023/07/19 01:18:28;;;;;;;3.80;3.50;;;16.40;99.90;;;;;;4993508;28;20841;-58
2023/07/19 01:20:56;;;;;;;3.93;3.63;;;16.40;99.90;;;;;;4997556;28;20498;-58
2023/07/19 01:23:28;;;;;;;4.20;3.87;;;16.40;99.90;;;;;;4998762;28;20528;-59
2023/07/19 01:25:57;;;;;;;4.00;3.70;;;16.40;99.90;;;;;;4993973;28;20465;-59
2023/07/19 01:28:25;;;;;;;3.80;3.50;;;16.30;99.90;;;;;;4997679;28;20531;-59
2023/07/19 01:30:53;;;;;;;4.67;4.03;;;16.30;99.90;;;;;;4994952;28;20569;-59
2023/07/19 01:33:21;;;;;;;3.90;3.60;;;16.30;99.90;;;;;;4996434;28;20477;-59
2023/07/19 01:36:01;;;;;;;6.07;3.90;;;16.40;99.90;;;;;;4994106;28;20473;-58
2023/07/19 01:38:30;;;;;;;4.37;3.80;;;16.30;99.90;;;;;;4995763;28;20472;-59
2023/07/19 01:40:58;;;;;;;4.77;4.10;;;16.30;99.90;;;;;;4994105;28;20468;-59
2023/07/19 01:43:26;;;;;;;4.20;3.80;;;16.30;99.90;;;;;;4989216;28;20520;-58
2023/07/19 01:45:54;;;;;;;4.20;3.80;;;16.30;99.90;;;;;;4997309;28;20507;-58
2023/07/19 01:48:22;;;;;;;3.97;3.67;;;16.30;99.90;;;;;;4996053;28;20982;-58
2023/07/19 01:50:50;;;;;;;4.30;3.90;;;16.30;99.90;;;;;;4993008;28;20608;-58
2023/07/19 01:53:18;;;;;;;5.30;4.20;;;16.20;99.90;;;;;;4990526;28;20476;-58
2023/07/19 01:55:47;;;;;;;4.50;4.10;;;16.20;99.90;;;;;;4999040;28;20515;-59
2023/07/19 01:58:15;;;;;;;4.50;4.20;;;16.20;99.90;;;;;;4991211;28;20485;-58
2023/07/19 02:00:43;;;;;;;4.60;3.83;;;16.20;99.90;;;;;;4995805;28;20568;-58
2023/07/19 02:03:11;;;;;;;5.00;4.50;;;16.30;99.90;;;;;;4984782;28;20473;-58
2023/07/19 02:05:39;;;;;;;4.60;4.23;;;16.30;99.90;;;;;;4999501;28;20868;-57
2023/07/19 02:08:07;;;;;;;4.10;3.80;;;16.30;99.90;;;;;;4991293;28;20556;-59
2023/07/19 02:10:35;;;;;;;4.37;4.00;;;16.30;99.90;;;;;;4996183;28;20559;-58
2023/07/19 02:13:04;;;;;;;4.33;3.93;;;16.30;99.90;;;;;;4993928;28;20516;-58
2023/07/19 02:15:32;;;;;;;4.40;4.00;;;16.30;99.90;;;;;;4992694;28;20585;-59
2023/07/19 02:18:00;;;;;;;4.50;3.80;;;16.20;99.90;;;;;;4993567;28;20479;-60
2023/07/19 02:20:28;;;;;;;4.40;4.10;;;16.30;99.90;;;;;;4992902;28;20475;-59
2023/07/19 02:22:56;;;;;;;4.30;3.70;;;16.30;99.90;;;;;;4997767;28;20490;-59
2023/07/19 02:25:24;;;;;;;3.73;3.40;;;16.20;99.90;;;;;;4998373;28;20513;-59
2023/07/19 02:27:52;;;;;;;4.07;3.77;;;16.20;99.90;;;;;;4995095;28;20835;-58
2023/07/19 02:30:22;;;;;;;5.00;3.80;;;16.20;99.90;;;;;;4996641;28;20483;-59
2023/07/19 02:32:50;;;;;;;3.90;3.40;;;16.20;99.90;;;;;;4990916;28;20577;-59
2023/07/19 02:35:18;;;;;;;3.50;3.20;;;16.20;99.90;;;;;;4989536;28;20508;-57
2023/07/19 02:37:46;;;;;;;5.30;3.90;;;16.20;99.90;;;;;;4996184;28;20973;-58
2023/07/19 02:40:14;;;;;;;4.00;3.60;;;16.10;99.90;;;;;;4994249;28;20465;-58
2023/07/19 02:42:42;;;;;;;3.47;3.17;;;16.10;99.90;;;;;;4994256;28;20480;-58
2023/07/19 02:45:10;;;;;;;2.90;2.70;;;16.10;99.90;;;;;;4993922;28;20586;-57
2023/07/19 02:47:40;;;;;;;5.13;3.33;;;16.10;99.90;;;;;;4992391;28;20568;-58
2023/07/19 02:50:08;;;;;;;3.83;2.80;;;16.20;99.90;;;;;;4995387;28;20991;-57
2023/07/19 02:52:36;;;;;;;3.43;3.00;;;16.10;99.90;;;;;;4988955;28;20490;-59
2023/07/19 02:55:05;;;;;;;2.70;2.50;;;16.10;99.90;;;;;;4998230;28;20496;-57
2023/07/19 02:57:33;;;;;;;3.30;3.00;;;16.10;99.90;;;;;;4996908;28;20517;-59
2023/07/19 03:00:01;;;;;;;2.43;2.33;;;16.10;99.90;;;;;;4987658;28;20981;-59
2023/07/19 03:02:29;;;;;;;2.97;2.63;;;16.00;99.90;;;;;;4988948;28;20599;-59
2023/07/19 03:04:58;;;;;;;2.60;2.40;;;16.00;99.90;;;;;;4989744;28;20562;-59
2023/07/19 03:07:26;;;;;;;2.80;2.60;;;16.00;99.90;;;;;;4994205;28;20548;-59
2023/07/19 03:09:54;;;;;;;3.53;2.70;;;16.00;99.90;;;;;;4991742;28;20480;-58
2023/07/19 03:12:22;;;;;;;4.80;2.63;;;16.00;99.90;;;;;;4990060;28;20588;-60
2023/07/19 03:14:50;;;;;;;3.13;2.60;;;16.00;99.90;;;;;;4995193;28;20504;-59
2023/07/19 03:17:18;;;;;;;2.50;2.30;;;15.90;99.90;;;;;;4992336;28;20567;-59
2023/07/19 03:19:48;;;;;;;2.57;2.47;;;15.90;99.90;;;;;;4992135;28;20468;-58
2023/07/19 03:22:17;;;;;;;2.97;2.77;;;15.90;99.90;;;;;;4997389;28;20535;-58
2023/07/19 03:24:45;;;;;;;4.93;2.73;;;15.80;99.90;;;;;;4992739;28;20512;-57
2023/07/19 03:27:13;;;;;;;3.07;2.87;;;15.80;99.90;;;;;;4996619;28;20476;-58
2023/07/19 03:29:41;;;;;;;3.53;2.60;;;15.80;99.90;;;;;;5001248;28;20507;-59
2023/07/19 03:32:09;;;;;;;3.00;2.80;;;15.80;99.90;;;;;;4997595;28;20568;-59
2023/07/19 03:34:37;;;;;;;2.43;2.23;;;15.80;99.90;;;;;;4996557;28;20532;-60
2023/07/19 03:37:06;;;;;;;2.70;2.50;;;15.80;99.90;;;;;;4998011;28;21003;-58
2023/07/19 03:39:35;;;;;;;3.20;2.60;;;15.70;99.90;;;;;;4997045;28;20514;-56
2023/07/19 03:42:03;;;;;;;2.73;2.50;;;15.70;99.90;;;;;;4995750;28;20546;-59
2023/07/19 03:44:31;;;;;;;2.97;2.67;;;15.70;99.90;;;;;;4999066;28;20516;-57
2023/07/19 03:46:59;;;;;;;2.50;2.30;;;15.70;99.90;;;;;;4998600;28;20510;-56
2023/07/19 03:49:27;;;;;;;3.57;2.60;;;15.70;99.90;;;;;;4999804;28;20530;-57
2023/07/19 03:51:55;;;;;;;2.33;2.17;;;15.60;99.90;;;;;;4998863;28;21017;-56
2023/07/19 03:54:23;;;;;;;2.93;2.60;;;15.60;99.90;;;;;;4999564;28;20495;-58
2023/07/19 03:56:53;;;;;;;2.47;2.27;;;15.60;99.90;;;;;;4996937;28;20468;-63
2023/07/19 03:59:20;;;;;;;3.03;2.53;;;15.60;99.90;;;;;;4999151;28;20567;-58
2023/07/19 04:01:48;;;;;;;2.60;2.40;;;15.60;99.90;;;;;;4991775;28;20485;-61
2023/07/19 04:04:16;;;;;;;2.20;2.10;;;15.70;99.90;;;;;;4998813;28;20496;-60
2023/07/19 04:06:45;;;;;;;3.23;2.57;;;15.60;99.90;;;;;;4997529;28;20537;-59
2023/07/19 04:09:12;;;;;;;2.77;2.57;;;15.70;99.90;;;;;;4998981;28;20472;-60
2023/07/19 04:11:40;;;;;;;2.57;2.37;;;15.60;99.90;;;;;;4999431;28;21073;-60
2023/07/19 04:14:10;;;;;;;2.70;2.50;;;15.60;99.90;;;;;;4994009;28;20555;-59
2023/07/19 04:16:38;;;;;;;3.73;2.33;;;15.60;99.90;;;;;;4998232;28;20488;-60
2023/07/19 04:19:06;;;;;;;4.73;2.60;;;15.60;99.90;;;;;;4993830;28;20484;-61
2023/07/19 04:21:34;;;;;;;2.57;2.37;;;15.50;99.90;;;;;;4990939;28;20945;-61
2023/07/19 04:24:02;;;;;;;4.23;2.67;;;15.50;99.90;;;;;;4993963;28;20517;-61
2023/07/19 04:26:30;;;;;;;2.60;2.37;;;15.50;99.90;;;;;;4998327;28;20469;-60
2023/07/19 04:28:59;;;;;;;2.73;2.53;;;15.50;99.90;;;;;;4990459;28;20492;-62
2023/07/19 04:31:28;;;;;;;3.37;2.60;;;15.40;99.90;;;;;;4983757;28;20499;-60
2023/07/19 04:33:56;;;;;;;3.10;2.40;;;15.40;99.90;;;;;;4989506;28;20501;-60
2023/07/19 04:36:24;;;;;;;2.90;2.63;;;15.50;99.90;;;;;;4989915;28;22946;-60
2023/07/19 04:38:52;;;;;;;4.10;2.77;;;15.40;99.90;;;;;;4995134;28;20622;-64
2023/07/19 04:41:20;;;;;;;2.50;2.20;;;15.40;99.90;;;;;;4993291;28;20516;-62
2023/07/19 04:43:49;;;;;;;3.37;2.60;;;15.40;99.90;;;;;;4989073;28;20528;-62
2023/07/19 04:46:21;;;;;;;2.70;2.50;;;15.30;99.90;;;;;;4989944;28;20468;-60
2023/07/19 04:48:50;;;;;;;2.63;2.43;;;15.30;99.90;;;;;;4988496;28;20472;-61
2023/07/19 04:51:18;;;;;;;3.13;2.80;;;15.30;99.90;;;;;;4986539;28;20480;-60
2023/07/19 04:53:47;;;;;;;2.93;2.43;;;15.30;99.90;;;;;;4992987;28;20508;-61
2023/07/19 04:56:15;;;;;;;2.90;2.43;;;15.30;99.90;;;;;;4994691;28;20501;-61
2023/07/19 04:58:43;;;;;;;2.73;2.53;;;15.40;99.90;;;;;;4987559;28;20475;-60
2023/07/19 05:01:11;;;;;;;3.50;2.80;;;15.40;99.90;;;;;;4995409;28;20595;-61
2023/07/19 05:03:39;;;;;;;2.97;2.77;;;15.40;99.90;;;;;;4996426;28;20464;-62
2023/07/19 05:06:09;;;;;;;2.57;2.37;;;15.30;99.90;;;;;;4990215;28;20555;-61
2023/07/19 05:08:37;;;;;;;3.50;2.57;;;15.30;99.90;;;;;;4988045;28;20572;-60
2023/07/19 05:11:05;;;;;;;3.10;2.90;;;15.30;99.90;;;;;;4989070;28;20476;-60
2023/07/19 05:13:33;;;;;;;2.60;2.40;;;15.40;99.90;;;;;;4995454;28;20544;-59
2023/07/19 05:16:01;;;;;;;2.97;2.77;;;15.40;99.90;;;;;;4994450;28;20488;-58
2023/07/19 05:18:29;;;;;;;3.07;2.80;;;15.40;99.90;;;;;;4995312;28;20947;-60
2023/07/19 05:20:57;;;;;;;3.47;2.57;;;15.40;99.90;;;;;;4988719;28;20563;-60
2023/07/19 05:23:27;;;;;;;2.87;2.67;;;15.40;99.90;;;;;;4991729;28;20678;-61
2023/07/19 05:25:55;;;;;;;3.30;3.10;;;15.30;99.90;;;;;;4994352;28;20551;-62
2023/07/19 05:28:23;;;;;;;3.10;2.80;;;15.30;99.90;;;;;;4990661;28;20503;-61
2023/07/19 05:30:51;;;;;;;4.17;2.80;;;15.30;99.90;;;;;;4991421;28;20948;-61
2023/07/19 05:33:19;;;;;;;4.60;2.83;;;15.30;99.90;;;;;;4992156;28;20510;-61
2023/07/19 05:35:48;;;;;;;3.33;2.70;;;15.20;99.90;;;;;;4989938;28;20923;-59
2023/07/19 05:38:17;;;;;;;3.83;2.90;;;15.20;99.90;;;;;;4990509;28;20505;-61
2023/07/19 05:40:47;;;;;;;3.07;2.77;;;15.10;99.90;;;;;;4995681;28;20526;-59
2023/07/19 05:43:15;;;;;;;3.23;2.90;;;15.10;99.90;;;;;;4983227;28;20585;-59
2023/07/19 05:45:43;;;;;;;2.93;2.73;;;15.20;99.90;;;;;;4987435;28;20497;-59
2023/07/19 05:48:11;;;;;;;3.20;2.90;;;15.10;99.90;;;;;;4991977;28;20464;-59
2023/07/19 05:50:39;;;;;;;4.90;2.97;;;15.20;99.90;;;;;;4984461;28;20465;-59
2023/07/19 05:53:07;;;;;;;2.87;2.67;;;15.20;99.90;;;;;;4992216;28;20509;-59
2023/07/19 05:55:35;;;;;;;2.80;2.60;;;15.20;99.90;;;;;;4985194;28;20507;-59
2023/07/19 05:58:04;;;;;;;3.43;3.13;;;15.20;99.90;;;;;;4992649;28;20466;-60
2023/07/19 06:00:32;;;;;;;3.40;3.13;;;15.20;99.90;;;;;;4993726;28;20668;-61
2023/07/19 06:03:00;;;;;;;2.97;2.77;;;15.20;99.90;;;;;;4987871;28;20646;-60
2023/07/19 06:05:28;;;;;;;3.70;3.37;;;15.20;99.90;;;;;;4994509;28;20503;-60
2023/07/19 06:07:56;;;;;;;3.23;2.93;;;15.20;99.90;;;;;;4992667;28;20549;-59
2023/07/19 06:10:37;;;;;;;3.00;2.80;;;15.20;99.90;;;;;;4993567;28;20509;-60
2023/07/19 06:13:06;;;;;;;3.70;3.10;;;15.20;99.90;;;;;;4989576;28;20599;-60
2023/07/19 06:15:35;;;;;;;2.87;2.67;;;15.20;99.90;;;;;;4995228;28;20488;-59
2023/07/19 06:18:03;;;;;;;3.10;2.80;;;15.10;99.90;;;;;;4990148;28;20545;-61
2023/07/19 06:20:32;;;;;;;3.50;3.17;;;15.10;99.90;;;;;;4998759;28;20520;-61
2023/07/19 06:22:59;;;;;;;2.60;2.40;;;15.20;99.90;;;;;;4985138;28;20502;-62
2023/07/19 06:25:28;;;;;;;2.73;2.53;;;15.10;99.90;;;;;;4992621;28;20488;-60
2023/07/19 06:27:56;;;;;;;3.33;3.13;;;15.20;99.90;;;;;;4994211;28;20466;-60
2023/07/19 06:30:25;;;;;;;2.90;2.70;;;15.20;99.90;;;;;;4993919;28;20915;-59
2023/07/19 06:32:53;;;;;;;3.13;2.77;;;15.10;99.90;;;;;;4987608;28;21038;-59
2023/07/19 06:35:21;;;;;;;4.17;2.70;;;15.20;99.90;;;;;;4999083;28;20528;-59
2023/07/19 06:37:49;;;;;;;4.13;2.83;;;15.20;99.90;;;;;;4995060;28;20494;-58
2023/07/19 06:40:17;;;;;;;3.83;2.90;;;15.20;99.90;;;;;;4993758;28;20567;-59
2023/07/19 06:42:45;;;;;;;2.87;2.67;;;15.20;99.90;;;;;;4990585;28;20489;-59
2023/07/19 06:45:13;;;;;;;3.83;2.83;;;15.20;99.90;;;;;;4990808;28;20587;-58
2023/07/19 06:47:42;;;;;;;2.50;2.30;;;15.20;99.90;;;;;;4991044;28;20569;-61
2023/07/19 06:50:11;;;;;;;3.57;2.50;;;15.20;99.90;;;;;;4989505;28;20552;-59
2023/07/19 06:52:39;;;;;;;2.70;2.50;;;15.20;99.90;;;;;;4990281;28;20503;-62
2023/07/19 06:55:08;;;;;;;2.70;2.50;;;15.20;99.90;;;;;;5000552;28;20911;-61
2023/07/19 06:57:36;;;;;;;3.70;2.30;;;15.20;99.90;;;;;;4994630;28;20488;-58
2023/07/19 07:00:05;;;;;;;2.87;2.67;;;15.20;99.90;;;;;;4998908;28;20472;-61
2023/07/19 07:02:33;;;;;;;3.10;2.80;;;15.30;99.90;;;;;;4999506;28;21079;-59
2023/07/19 07:05:03;;;;;;;2.67;2.50;;;15.30;99.90;;;;;;5001166;28;20499;-58
2023/07/19 07:07:31;;;;;;;2.60;2.40;;;15.30;99.90;;;;;;4998269;28;20499;-59
2023/07/19 07:10:04;;;;;;;2.77;2.57;;;15.40;99.90;;;;;;4997021;28;20548;-60
2023/07/19 07:12:32;;;;;;;2.17;2.00;;;15.40;99.90;;;;;;4992614;28;20487;-59
2023/07/19 07:15:01;;;;;;;2.70;2.30;;;15.40;99.90;;;;;;4996968;28;20829;-62
2023/07/19 07:17:29;;;;;;;3.30;2.20;;;15.40;99.90;;;;;;4994029;28;20963;-61
2023/07/19 07:19:58;;;;;;;2.63;2.17;;;15.50;99.90;;;;;;5000130;28;20980;-59
2023/07/19 07:22:28;;;;;;;3.00;2.80;;;15.50;99.90;;;;;;4995102;28;20511;-62
2023/07/19 07:24:58;;;;;;;2.63;2.33;;;15.60;99.90;;;;;;4999748;28;20488;-58
2023/07/19 07:27:27;;;;;;;2.23;2.13;;;15.60;99.90;;;;;;4999477;28;20468;-61
2023/07/19 07:29:55;;;;;;;2.60;2.37;;;15.70;99.90;;;;;;4999815;28;20484;-59
2023/07/19 07:32:23;;;;;;;2.30;2.20;;;15.70;99.90;;;;;;4995245;28;20543;-59
2023/07/19 07:34:51;;;;;;;3.07;2.20;;;15.80;99.90;;;;;;4995369;28;20484;-60
2023/07/19 07:37:19;;;;;;;2.93;2.43;;;15.80;99.90;;;;;;5000496;28;20498;-59
2023/07/19 07:39:49;;;;;;;4.27;2.33;;;15.90;99.90;;;;;;4997271;28;21208;-60
2023/07/19 07:42:17;;;;;;;2.57;2.30;;;15.90;99.90;;;;;;4997909;28;20516;-59
2023/07/19 07:44:45;;;;;;;2.47;1.90;;;16.00;99.90;;;;;;4998040;28;20499;-59
2023/07/19 07:47:15;;;;;;;2.17;1.97;;;16.00;99.90;;;;;;4998268;28;20483;-60
2023/07/19 07:49:43;;;;;;;1.80;1.70;;;16.00;99.90;;;;;;4997722;28;20615;-60
2023/07/19 07:52:15;;;;;;;1.63;1.53;;;16.00;99.90;;;;;;5000308;28;20481;-60
2023/07/19 07:54:44;;;;;;;1.97;1.70;;;16.00;99.90;;;;;;4998841;28;20516;-60
2023/07/19 07:57:13;;;;;;;3.57;1.90;;;16.10;99.90;;;;;;4997358;28;20492;-60
2023/07/19 07:59:41;;;;;;;1.90;1.80;;;16.10;99.90;;;;;;4999959;28;20484;-61
2023/07/19 08:02:09;;;;;;;1.67;1.57;;;16.10;99.90;;;;;;4999649;28;22764;-61
2023/07/19 08:04:37;;;;;;;2.40;1.70;;;16.10;99.90;;;;;;4988043;28;21013;-60
2023/07/19 08:07:05;;;;;;;2.30;2.10;;;16.20;99.90;;;;;;4998871;28;20469;-61
2023/07/19 08:09:34;;;;;;;1.73;1.63;;;16.30;99.90;;;;;;4999625;28;20510;-59
2023/07/19 08:12:02;;;;;;;2.10;1.93;;;16.30;99.90;;;;;;4997399;28;20520;-60
2023/07/19 08:14:32;;;;;;;2.00;1.90;;;16.30;99.90;;;;;;4987785;28;20492;-60
2023/07/19 08:17:00;;;;;;;2.33;2.00;;;16.40;99.90;;;;;;4992820;28;21012;-58
2023/07/19 08:19:30;;;;;;;1.63;1.53;;;16.50;99.90;;;;;;5000454;28;20468;-59
2023/07/19 08:22:05;;;;;;;2.03;1.83;;;16.60;99.90;;;;;;4997731;28;20476;-59
2023/07/19 08:24:34;;;;;;;1.87;1.50;;;16.60;99.90;;;;;;4989046;28;20499;-59
2023/07/19 08:27:02;;;;;;;1.60;1.50;;;16.60;99.90;;;;;;4999065;28;20488;-60
2023/07/19 08:29:31;;;;;;;2.10;2.00;;;16.60;99.90;;;;;;4991883;28;20504;-59
2023/07/19 08:31:59;;;;;;;2.57;1.70;;;16.70;99.90;;;;;;4994718;28;20586;-59
2023/07/19 08:34:27;;;;;;;1.73;1.40;;;16.80;99.90;;;;;;5000332;28;20492;-59
2023/07/19 08:36:55;;;;;;;2.33;1.67;;;16.70;99.90;;;;;;4998668;28;20562;-61
2023/07/19 08:39:24;;;;;;;1.50;1.30;;;16.70;99.90;;;;;;4997660;28;20492;-61
2023/07/19 08:41:52;;;;;;;2.40;1.50;;;16.70;99.90;;;;;;4992119;28;20555;-61
2023/07/19 08:44:22;;;;;;;1.30;1.20;;;16.70;99.90;;;;;;5001008;28;21209;-58
2023/07/19 08:46:53;;;;;;;1.60;1.23;;;16.70;99.90;;;;;;4995920;28;20557;-59
2023/07/19 08:49:22;;;;;;;1.40;1.30;;;16.70;99.90;;;;;;4986240;28;20468;-59
2023/07/19 08:51:50;;;;;;;1.23;1.13;;;16.80;99.90;;;;;;4995043;28;20520;-59
2023/07/19 08:54:18;;;;;;;1.33;1.10;;;16.80;99.90;;;;;;4996877;28;20908;-60
2023/07/19 08:56:47;;;;;;;1.10;1.00;;;16.90;99.90;;;;;;4989896;28;20476;-59
2023/07/19 08:59:15;;;;;;;1.20;1.00;;;17.00;99.90;;;;;;4997953;28;21071;-61
2023/07/19 09:01:43;;;;;;;1.43;1.17;;;17.10;99.90;;;;;;4990786;28;20496;-59
2023/07/19 09:04:13;;;;;;;2.10;1.50;;;17.00;99.90;;;;;;4994177;28;20492;-60
2023/07/19 09:06:42;;;;;;;2.53;1.40;;;17.00;99.90;;;;;;4998386;28;20962;-60
2023/07/19 09:09:10;;;;;;;1.17;1.07;;;17.10;99.90;;;;;;4989116;28;20936;-60
2023/07/19 09:11:43;;;;;;;0.90;0.90;;;17.20;99.90;;;;;;4991905;28;20491;-59
2023/07/19 09:14:11;;;;;;;1.27;1.20;;;17.30;99.90;;;;;;4997310;28;20512;-60
2023/07/19 09:16:40;;;;;;;1.30;1.20;;;17.40;99.90;;;;;;4991336;28;21020;-61
2023/07/19 09:19:09;;;;;;;1.20;1.10;;;17.50;99.90;;;;;;4996597;28;20839;-60
2023/07/19 09:21:42;;;;;;;1.40;1.30;;;17.60;99.90;;;;;;4980107;28;20507;-58
2023/07/19 09:24:11;;;;;;;1.27;1.17;;;17.60;99.90;;;;;;4994137;28;20492;-60
2023/07/19 09:26:48;;;;;;;1.67;1.10;;;17.70;99.90;;;;;;4992005;28;20563;-60
2023/07/19 09:29:16;;;;;;;1.50;1.40;;;17.80;99.90;;;;;;4992350;28;20478;-59
2023/07/19 09:31:54;;;;;;;2.03;1.60;;;18.00;99.90;;;;;;4995380;28;20489;-59
2023/07/19 09:34:23;;;;;;;1.53;1.37;;;18.10;99.90;;;;;;4992173;28;20492;-60
2023/07/19 09:36:53;;;;;;;1.10;1.10;;;18.10;99.90;;;;;;4989207;28;20480;-60
2023/07/19 09:39:22;;;;;;;2.03;1.53;;;18.10;99.90;;;;;;4988521;28;20503;-61
2023/07/19 09:41:50;;;;;;;1.30;1.20;;;18.20;99.90;;;;;;4977376;28;20490;-61
2023/07/19 09:44:18;;;;;;;1.50;1.40;;;18.30;99.90;;;;;;4979951;28;20492;-61
2023/07/19 09:46:46;;;;;;;1.53;1.43;;;18.40;99.90;;;;;;4997004;28;20556;-60
2023/07/19 09:49:14;;;;;;;1.43;1.30;;;18.50;99.90;;;;;;4994995;28;20514;-59
2023/07/19 09:51:43;;;;;;;1.33;1.23;;;18.50;99.90;;;;;;4992565;28;20575;-60
2023/07/19 09:54:14;;;;;;;2.80;1.40;;;18.60;99.90;;;;;;4988104;28;20524;-60
2023/07/19 09:56:43;;;;;;;1.30;1.20;;;18.50;99.90;;;;;;4996345;28;20500;-59
2023/07/19 09:59:13;;;;;;;2.67;1.63;;;18.50;99.90;;;;;;4992537;28;20527;-60
2023/07/19 10:01:43;;;;;;;1.80;1.70;;;18.70;99.90;;;;;;4997641;28;20926;-60
2023/07/19 10:04:25;;;;;;;1.50;1.40;;;18.70;99.90;;;;;;4993610;28;20501;-60
2023/07/19 10:07:04;;;;;;;1.50;1.40;;;18.80;99.90;;;;;;4988596;28;22080;-61
2023/07/19 10:09:36;;;;;;;1.70;1.60;;;18.80;99.90;;;;;;4993055;28;20449;-60
2023/07/19 10:12:23;;;;;;;1.77;1.60;;;18.90;99.90;;;;;;4992838;28;21075;-60
2023/07/19 10:14:55;;;;;;;1.60;1.50;;;19.00;99.90;;;;;;4997433;28;20524;-59
2023/07/19 10:17:24;;;;;;;1.70;1.40;;;19.10;99.90;;;;;;4998373;28;20552;-58
2023/07/19 10:20:06;;;;;;;1.70;1.60;;;19.00;99.90;;;;;;4999301;28;20528;-59
2023/07/19 10:22:48;;;;;;;2.03;1.93;;;19.20;99.90;;;;;;4993389;28;20495;-59
2023/07/19 10:25:21;;;;;;;2.13;1.87;;;19.30;99.90;;;;;;5000008;28;20495;-59
2023/07/19 10:27:57;;;;;;;2.30;1.83;;;19.40;99.90;;;;;;4994431;28;20973;-59
2023/07/19 10:30:46;;;;;;;1.87;1.77;;;19.50;99.90;;;;;;5001025;28;20924;-59
2023/07/19 10:33:16;;;;;;;1.60;1.50;;;19.50;99.90;;;;;;5001041;28;20535;-59
2023/07/19 10:35:45;;;;;;;4.07;1.77;;;19.50;99.90;;;;;;5003402;28;20905;-59
2023/07/19 10:38:17;;;;;;;2.10;1.90;;;19.60;99.90;;;;;;5000369;28;20563;-58
2023/07/19 10:40:48;;;;;;;1.40;1.30;;;19.60;99.90;;;;;;4993896;28;20479;-59
2023/07/19 10:43:16;;;;;;;1.90;1.50;;;19.70;99.90;;;;;;4999774;28;20481;-59
2023/07/19 10:45:59;;;;;;;3.17;1.80;;;19.70;99.90;;;;;;4997484;28;20504;-59
2023/07/19 10:48:29;;;;;;;2.43;1.80;;;19.90;99.90;;;;;;4997693;28;20477;-59
2023/07/19 10:50:57;;;;;;;1.83;1.73;;;19.90;99.90;;;;;;5000338;28;20472;-59
2023/07/19 10:53:26;;;;;;;2.33;2.13;;;19.90;99.90;;;;;;4994590;28;20560;-59
2023/07/19 10:55:56;;;;;;;7.77;3.10;;;19.90;99.90;;;;;;5000356;28;20906;-59
2023/07/19 10:58:24;;;;;;;2.23;1.97;;;19.90;99.90;;;;;;5000106;28;21053;-59
2023/07/19 11:00:53;;;;;;;2.93;2.10;;;19.90;99.90;;;;;;4998806;28;20559;-59
2023/07/19 11:03:23;;;;;;;2.30;2.13;;;20.00;99.90;;;;;;4989823;28;20856;-59
2023/07/19 11:05:52;;;;;;;2.37;1.97;;;20.00;99.90;;;;;;4997194;28;20839;-59
2023/07/19 11:08:21;;;;;;;2.67;2.30;;;20.10;99.90;;;;;;5000728;28;21035;-60
2023/07/19 11:10:50;;;;;;;2.53;2.00;;;20.10;99.90;;;;;;4994001;28;21064;-59
2023/07/19 11:13:21;;;;;;;2.60;2.40;;;20.10;99.90;;;;;;4989949;28;20503;-60
2023/07/19 11:15:53;;;;;;;3.40;2.07;;;20.00;99.90;;;;;;5000189;28;20505;-60
2023/07/19 11:18:27;;;;;;;2.23;2.03;;;20.00;99.90;;;;;;5001344;28;20470;-60
2023/07/19 11:20:55;;;;;;;2.63;2.10;;;19.90;99.90;;;;;;4995940;28;20929;-60
2023/07/19 11:23:23;;;;;;;2.30;2.10;;;19.90;99.90;;;;;;4996340;28;20981;-60
2023/07/19 11:25:51;;;;;;;2.20;2.03;;;19.90;99.90;;;;;;4999442;28;20576;-60
2023/07/19 11:28:39;;;;;;;4.27;2.03;;;19.90;99.90;;;;;;4999507;28;21127;-60
2023/07/19 11:31:10;;;;;;;3.20;2.23;;;19.80;99.90;;;;;;4996888;28;20479;-60
2023/07/19 11:33:39;;;;;;;4.20;3.03;;;19.80;99.90;;;;;;4994820;28;20885;-60
2023/07/19 11:36:08;;;;;;;4.30;3.23;;;19.80;99.90;;;;;;4996323;28;20475;-60
2023/07/19 11:38:38;;;;;;;3.93;3.10;;;19.70;99.90;;;;;;5000462;28;20969;-60
2023/07/19 11:41:06;;;;;;;3.63;3.33;;;19.60;99.90;;;;;;4992617;28;20488;-60
2023/07/19 11:43:45;;;;;;;4.90;3.37;;;19.50;99.90;;;;;;4999128;28;20468;-60
2023/07/19 11:46:14;;;;;;;3.23;3.03;;;19.50;99.90;;;;;;4997128;28;20992;-60
2023/07/19 11:48:42;;;;;;;3.00;2.80;;;19.40;99.90;;;;;;4996336;28;20504;-60
2023/07/19 11:51:10;;;;;;;4.00;3.17;;;19.40;99.90;;;;;;4999578;28;21043;-60
2023/07/19 11:53:37;;;;;;;4.50;3.07;;;19.50;99.90;;;;;;4998588;28;20590;-60
2023/07/19 11:56:06;;;;;;;5.83;2.80;;;19.60;99.90;;;;;;5001557;28;20476;-60
2023/07/19 11:58:40;;;;;;;4.57;2.53;;;19.80;99.90;;;;;;4997369;28;20984;-65
2023/07/19 12:01:13;;;;;;;3.50;3.30;;;20.00;99.90;;;;;;4999445;28;20564;-65
2023/07/19 12:03:42;;;;;;;3.93;3.63;;;20.20;99.90;;;;;;4996683;28;20526;-60
2023/07/19 12:06:10;;;;;;;5.67;3.40;;;20.30;99.90;;;;;;4998833;28;20498;-65
2023/07/19 12:08:39;;;;;;;3.87;3.00;;;20.30;99.90;;;;;;4999361;28;20993;-65
2023/07/19 12:11:07;;;;;;;2.83;2.63;;;20.40;99.90;;;;;;5000420;28;20484;-59
2023/07/19 12:13:36;;;;;;;3.10;2.60;;;20.50;99.90;;;;;;4996467;28;20559;-60
2023/07/19 12:16:06;;;;;;;3.07;2.77;;;20.50;99.90;;;;;;4992812;28;20500;-57
2023/07/19 12:18:34;;;;;;;3.20;2.90;;;20.50;99.90;;;;;;4998862;28;20515;-57
2023/07/19 12:21:06;;;;;;;3.57;3.27;;;20.50;99.90;;;;;;4999869;28;21029;-60
2023/07/19 12:23:34;;;;;;;3.33;3.13;;;20.50;99.90;;;;;;4997499;28;20505;-59
2023/07/19 12:26:04;;;;;;;2.83;2.63;;;20.50;99.90;;;;;;4998985;28;20473;-59
2023/07/19 12:28:33;;;;;;;3.30;3.10;;;20.50;99.90;;;;;;4991420;28;20473;-60
2023/07/19 12:31:01;;;;;;;3.00;2.80;;;20.40;99.90;;;;;;4994230;28;21086;-60
2023/07/19 12:33:30;;;;;;;3.20;2.90;;;20.40;99.90;;;;;;4998222;28;21543;-60
2023/07/19 12:35:58;;;;;;;2.43;2.33;;;20.30;99.90;;;;;;4996674;28;20500;-57
2023/07/19 12:38:26;;;;;;;3.47;3.17;;;20.30;99.90;;;;;;4994625;28;20887;-57
2023/07/19 12:40:54;;;;;;;3.00;2.70;;;20.30;99.90;;;;;;4994516;28;20997;-57
2023/07/19 12:43:22;;;;;;;3.60;3.30;;;20.30;99.90;;;;;;4995691;28;20575;-58
2023/07/19 12:45:50;;;;;;;3.00;2.80;;;20.20;99.90;;;;;;4999901;28;20517;-58
2023/07/19 12:48:18;;;;;;;3.20;2.90;;;20.20;99.90;;;;;;4996027;28;20555;-59
2023/07/19 12:50:48;;;;;;;2.80;2.60;;;20.20;99.90;;;;;;4995707;28;20531;-58
2023/07/19 12:53:18;;;;;;;3.20;3.00;;;20.20;99.90;;;;;;4998098;28;20501;-58
2023/07/19 12:55:46;;;;;;;2.30;2.20;;;20.30;99.90;;;;;;4995093;28;20767;-57
2023/07/19 12:58:14;;;;;;;4.03;3.57;;;20.20;99.90;;;;;;4998997;28;20479;-57